Neghelli, Ethiopia
Current Conditions -  °F | °C
As of 10:00 PM on Sunday 21 Dec 2014 (Local Time) from HKEL Reporting Station
Broken Clouds Broken Clouds  
Wind Chill: 13°   Ceiling: 1900
Heat Index: 13°   Visibility: 6mi
Dew Point: 11°   Wind: 3mph
Humidity: 88%   Direction: 120°ESE
Pressure: 30.27"   Gusts: NA
Location:  5.28°N, 39.7°E
Report Text: HKEL 211900Z 12003KT 9999 FEW018CB BKN019 BKN080 13/11 Q1025
Loading
Personal Weather Stations






























Interactive Weather Map New forecast layout! Learn more

10-Day Weather Forecast

Advertisements
Track Severe Weather on mobile